Time;durP1;ratioP1;P1;durP2;ratioP2;P2;SDS_P1;SDS_P2;PMS_P1;PMS_P2;Temp;Humidity;BMP_temperature;BMP_pressure;BME280_temperature;BME280_humidity;BME280_pressure;Samples;Min_cycle;Max_cycle;Signal;HPM_P1;HPM_P2
2022/07/26 00:02:09;;;;;;;15.20;3.20;;;18.20;99.90;;;;;;5012177;28;20482;-78
2022/07/26 00:04:35;;;;;;;14.75;3.33;;;18.20;99.90;;;;;;5011177;28;20054;-78
2022/07/26 00:07:00;;;;;;;11.20;3.13;;;18.10;99.90;;;;;;5010932;28;20056;-78
2022/07/26 00:09:26;;;;;;;13.82;2.97;;;18.10;99.90;;;;;;5011024;28;20150;-78
2022/07/26 00:11:52;;;;;;;11.90;2.70;;;18.10;99.90;;;;;;5011645;28;20126;-78
2022/07/26 00:14:18;;;;;;;10.10;2.72;;;18.10;99.90;;;;;;5011414;28;20371;-78
2022/07/26 00:16:44;;;;;;;10.38;3.45;;;18.10;99.90;;;;;;4995523;28;20045;-78
2022/07/26 00:19:09;;;;;;;9.52;2.70;;;18.10;99.90;;;;;;5011405;28;20049;-77
2022/07/26 00:21:36;;;;;;;12.85;3.22;;;18.10;99.90;;;;;;5010961;28;20156;-77
2022/07/26 00:24:03;;;;;;;10.45;3.03;;;18.10;99.90;;;;;;4995194;28;20061;-77
2022/07/26 00:26:28;;;;;;;14.90;2.90;;;18.10;99.90;;;;;;5011270;28;20492;-78
2022/07/26 00:28:54;;;;;;;13.30;2.72;;;18.10;99.90;;;;;;5011319;28;20077;-78
2022/07/26 00:31:20;;;;;;;16.15;3.75;;;18.10;99.90;;;;;;5010928;28;20109;-78
2022/07/26 00:33:45;;;;;;;15.00;3.38;;;18.10;99.90;;;;;;4994991;28;20143;-78
2022/07/26 00:36:11;;;;;;;12.07;3.17;;;18.10;99.90;;;;;;5011300;28;20124;-78
2022/07/26 00:38:37;;;;;;;11.65;2.80;;;18.10;99.90;;;;;;5010727;28;20045;-78
2022/07/26 00:41:04;;;;;;;12.88;3.25;;;18.10;99.90;;;;;;5011228;28;20563;-78
2022/07/26 00:43:30;;;;;;;12.43;3.17;;;18.00;99.90;;;;;;5010512;28;20049;-79
2022/07/26 00:45:56;;;;;;;15.45;3.20;;;18.00;99.90;;;;;;5011079;28;20037;-78
2022/07/26 00:48:22;;;;;;;15.57;3.42;;;18.00;99.90;;;;;;5008594;28;20037;-78
2022/07/26 00:50:48;;;;;;;12.10;3.25;;;18.00;99.90;;;;;;4994780;28;20422;-78
2022/07/26 00:53:14;;;;;;;14.18;3.50;;;18.00;99.90;;;;;;5011208;28;20077;-78
2022/07/26 00:55:39;;;;;;;17.73;3.50;;;18.10;99.90;;;;;;5010655;28;20060;-78
2022/07/26 00:58:05;;;;;;;14.35;3.13;;;18.10;99.90;;;;;;5011102;28;20038;-79
2022/07/26 01:00:31;;;;;;;12.68;3.92;;;18.10;99.90;;;;;;4994269;28;20038;-78
2022/07/26 01:02:59;;;;;;;12.20;3.25;;;18.10;99.90;;;;;;4978301;28;20033;-79
2022/07/26 01:05:26;;;;;;;13.05;3.22;;;18.20;99.90;;;;;;5010111;28;20058;-79
2022/07/26 01:07:52;;;;;;;14.82;3.90;;;18.20;99.90;;;;;;4994684;28;20076;-79
2022/07/26 01:10:18;;;;;;;;;;;18.20;99.90;;;;;;5010662;28;20137;-79
2022/07/26 01:12:44;;;;;;;12.07;3.67;;;18.20;99.90;;;;;;5010702;28;19948;-79
2022/07/26 01:15:12;;;;;;;9.82;2.97;;;18.10;99.90;;;;;;5010367;28;20064;-79
2022/07/26 01:17:38;;;;;;;11.57;2.90;;;18.20;99.90;;;;;;5009805;28;20049;-79
2022/07/26 01:20:05;;;;;;;;;;;18.20;99.90;;;;;;5010799;28;20089;-79
2022/07/26 01:22:30;;;;;;;10.75;2.70;;;18.20;99.90;;;;;;4996146;28;19953;-79
2022/07/26 01:24:56;;;;;;;10.63;2.90;;;18.10;99.90;;;;;;4994056;28;20506;-80
2022/07/26 01:27:22;;;;;;;9.32;3.33;;;18.10;99.90;;;;;;5009826;28;20117;-78
2022/07/26 01:29:50;;;;;;;10.77;2.72;;;18.20;99.90;;;;;;4993852;28;20572;-78
2022/07/26 01:32:17;;;;;;;9.10;2.63;;;18.20;99.90;;;;;;5010516;28;20045;-77
2022/07/26 01:34:42;;;;;;;11.95;2.92;;;18.20;99.90;;;;;;5010015;28;20056;-77
2022/07/26 01:37:08;;;;;;;10.95;3.17;;;18.20;99.90;;;;;;5010384;28;20116;-78
2022/07/26 01:39:34;;;;;;;8.23;2.67;;;18.10;99.90;;;;;;5009603;28;20049;-78
2022/07/26 01:42:00;;;;;;;9.48;2.22;;;18.20;99.90;;;;;;5010223;28;20049;-78
2022/07/26 01:44:25;;;;;;;8.45;2.90;;;18.20;99.90;;;;;;4990976;28;20029;-78
2022/07/26 01:46:51;;;;;;;7.60;2.72;;;18.20;99.90;;;;;;5010254;28;20038;-79
2022/07/26 01:49:17;;;;;;;9.38;2.58;;;18.20;99.90;;;;;;5009844;28;20052;-78
2022/07/26 01:51:43;;;;;;;6.13;2.65;;;18.20;99.90;;;;;;5009790;28;20475;-79
2022/07/26 01:54:08;;;;;;;10.40;2.63;;;18.20;99.90;;;;;;4993605;28;20399;-78
2022/07/26 01:56:34;;;;;;;9.65;2.35;;;18.20;99.90;;;;;;5009163;28;20073;-78
2022/07/26 01:59:00;;;;;;;10.90;3.45;;;18.20;99.90;;;;;;4993801;28;20042;-79
2022/07/26 02:01:26;;;;;;;9.15;2.70;;;18.20;99.90;;;;;;4993075;28;20050;-79
2022/07/26 02:03:51;;;;;;;7.93;2.80;;;18.20;99.90;;;;;;4993228;28;20136;-78
2022/07/26 02:06:17;;;;;;;8.50;3.00;;;18.20;99.90;;;;;;4993851;28;20104;-78
2022/07/26 02:08:43;;;;;;;4.82;2.53;;;18.10;99.90;;;;;;5008678;28;20052;-77
2022/07/26 02:11:09;;;;;;;7.88;2.58;;;18.10;99.90;;;;;;4976857;28;20445;-78
2022/07/26 02:13:40;;;;;;;7.50;2.58;;;18.10;99.90;;;;;;4992153;28;20084;-78
2022/07/26 02:16:09;;;;;;;9.15;2.40;;;18.10;99.90;;;;;;5008828;28;20038;-78
2022/07/26 02:18:36;;;;;;;9.07;3.13;;;18.10;99.90;;;;;;5009381;28;20052;-78
2022/07/26 02:21:04;;;;;;;7.43;2.70;;;18.10;99.90;;;;;;5009609;28;20129;-78
2022/07/26 02:23:30;;;;;;;9.00;2.95;;;18.10;99.90;;;;;;5009284;28;20044;-78
2022/07/26 02:25:56;;;;;;;6.07;2.70;;;18.10;99.90;;;;;;5009549;28;20034;-78
2022/07/26 02:28:22;;;;;;;6.30;2.58;;;18.00;99.90;;;;;;4993063;28;20085;-78
2022/07/26 02:30:49;;;;;;;5.05;2.67;;;18.00;99.90;;;;;;5009318;28;20129;-78
2022/07/26 02:33:15;;;;;;;9.80;2.90;;;18.00;99.90;;;;;;4993386;28;20401;-78
2022/07/26 02:35:41;;;;;;;6.85;2.20;;;18.00;99.90;;;;;;4992637;28;20625;-78
2022/07/26 02:38:10;;;;;;;6.40;1.90;;;17.90;99.90;;;;;;4993036;28;20054;-77
2022/07/26 02:40:36;;;;;;;5.05;1.88;;;17.80;99.90;;;;;;5008834;28;20040;-77
2022/07/26 02:43:04;;;;;;;5.28;1.80;;;17.60;99.90;;;;;;5009248;28;20048;-77
2022/07/26 02:45:29;;;;;;;3.97;1.77;;;17.50;99.90;;;;;;5006749;28;20056;-78
2022/07/26 02:47:56;;;;;;;3.92;1.88;;;17.40;99.90;;;;;;5009459;28;20038;-77
2022/07/26 02:50:24;;;;;;;7.57;1.70;;;17.30;99.90;;;;;;5009066;28;20045;-77
2022/07/26 02:52:51;;;;;;;4.88;1.63;;;17.30;99.90;;;;;;5006556;28;20096;-77
2022/07/26 02:55:20;;;;;;;6.00;1.80;;;17.30;99.90;;;;;;4993209;28;20452;-76
2022/07/26 02:57:46;;;;;;;3.85;1.73;;;17.30;99.90;;;;;;5008905;28;20044;-77
2022/07/26 03:00:12;;;;;;;;;;;17.30;99.90;;;;;;5009367;28;20045;-77
2022/07/26 03:02:39;;;;;;;4.90;1.63;;;17.20;99.90;;;;;;5008751;28;19979;-77
2022/07/26 03:05:05;;;;;;;4.15;2.13;;;17.20;99.90;;;;;;5008737;28;20057;-77
2022/07/26 03:07:32;;;;;;;4.53;1.83;;;17.20;99.90;;;;;;5009553;28;20049;-77
2022/07/26 03:09:57;;;;;;;;;;;17.20;99.90;;;;;;5010878;28;20093;-77
2022/07/26 03:12:24;;;;;;;6.20;1.60;;;17.10;99.90;;;;;;5012648;28;20451;-76
2022/07/26 03:14:49;;;;;;;6.03;2.05;;;17.20;99.90;;;;;;5012236;28;20042;-77
2022/07/26 03:17:15;;;;;;;4.57;1.67;;;17.10;99.90;;;;;;4996579;28;20504;-77
2022/07/26 03:19:41;;;;;;;7.68;2.20;;;17.10;99.90;;;;;;5011644;28;20045;-76
2022/07/26 03:22:07;;;;;;;7.10;2.00;;;17.00;99.90;;;;;;5012350;28;20034;-77
2022/07/26 03:24:33;;;;;;;6.20;1.80;;;17.10;99.90;;;;;;5014358;28;20092;-78
2022/07/26 03:26:59;;;;;;;6.70;2.00;;;17.10;99.90;;;;;;4995977;28;20098;-78
2022/07/26 03:29:24;;;;;;;6.90;2.33;;;17.10;99.90;;;;;;5012494;28;20096;-78
2022/07/26 03:31:50;;;;;;;7.13;2.75;;;17.10;99.90;;;;;;5012014;28;20041;-78
2022/07/26 03:34:16;;;;;;;4.45;2.05;;;17.10;99.90;;;;;;5012375;28;20069;-78
2022/07/26 03:36:45;;;;;;;8.90;2.15;;;17.10;99.90;;;;;;5011460;28;20034;-78
2022/07/26 03:39:11;;;;;;;6.32;2.17;;;17.10;99.90;;;;;;5012168;28;20042;-76
2022/07/26 03:41:36;;;;;;;6.50;1.80;;;17.20;99.90;;;;;;4995258;28;20099;-76
2022/07/26 03:44:02;;;;;;;6.95;2.08;;;17.20;99.90;;;;;;4995901;28;20048;-77
2022/07/26 03:46:28;;;;;;;7.65;1.50;;;17.10;99.90;;;;;;4995703;28;20038;-77
2022/07/26 03:48:54;;;;;;;6.15;1.50;;;17.10;99.90;;;;;;5011551;28;20121;-76
2022/07/26 03:51:20;;;;;;;9.70;1.50;;;17.10;99.90;;;;;;5011862;28;20454;-76
2022/07/26 03:53:45;;;;;;;6.57;1.20;;;17.10;99.90;;;;;;4995173;28;20100;-77
2022/07/26 03:58:58;;;;;;;6.72;1.20;;;17.00;99.90;;;;;;4997700;28;20080;-77
2022/07/26 04:01:24;;;;;;;6.05;1.20;;;17.00;99.90;;;;;;5011696;28;20054;-77
2022/07/26 04:03:50;;;;;;;7.20;1.20;;;16.90;99.90;;;;;;4994694;28;20050;-77
2022/07/26 04:06:15;;;;;;;4.97;1.17;;;16.90;99.90;;;;;;5011443;28;20049;-77
2022/07/26 04:08:41;;;;;;;6.88;1.17;;;16.90;99.90;;;;;;5011202;28;20073;-77
2022/07/26 04:11:07;;;;;;;10.32;1.08;;;16.90;99.90;;;;;;5011739;28;20038;-77
2022/07/26 04:13:34;;;;;;;5.22;1.15;;;16.90;99.90;;;;;;5011424;28;20291;-79
2022/07/26 04:16:00;;;;;;;5.75;0.85;;;17.00;99.90;;;;;;5011689;28;20056;-78
2022/07/26 04:18:26;;;;;;;3.03;0.80;;;16.90;99.90;;;;;;4992357;28;20053;-77
2022/07/26 04:20:52;;;;;;;5.20;1.10;;;16.90;99.90;;;;;;5011142;28;20471;-77
2022/07/26 04:23:17;;;;;;;9.02;1.48;;;16.90;99.90;;;;;;5011331;28;20184;-77
2022/07/26 04:25:43;;;;;;;9.40;1.30;;;17.00;99.90;;;;;;5011183;28;20550;-79
2022/07/26 04:28:10;;;;;;;7.38;1.10;;;17.00;99.90;;;;;;5011163;28;20054;-76
2022/07/26 04:30:37;;;;;;;4.72;0.90;;;17.10;99.90;;;;;;4994881;28;20042;-77
2022/07/26 04:33:03;;;;;;;6.30;0.98;;;17.10;99.90;;;;;;5011412;28;20405;-78
2022/07/26 04:35:29;;;;;;;;;;;17.00;99.90;;;;;;5010584;28;20195;-77
2022/07/26 04:37:55;;;;;;;3.45;0.57;;;16.90;99.90;;;;;;5017379;28;20408;-79
2022/07/26 04:40:21;;;;;;;8.15;1.00;;;16.90;99.90;;;;;;5010252;28;20045;-78
2022/07/26 04:42:49;;;;;;;3.20;0.60;;;16.90;99.90;;;;;;5009813;28;20029;-77
2022/07/26 04:45:15;;;;;;;6.70;0.95;;;16.90;99.90;;;;;;5010123;28;20406;-79
2022/07/26 04:47:48;;;;;;;4.57;0.95;;;16.80;99.90;;;;;;5009945;28;20482;-78
2022/07/26 04:50:14;;;;;;;4.22;0.70;;;16.90;99.90;;;;;;5010630;28;20049;-78
2022/07/26 04:52:40;;;;;;;6.50;0.90;;;16.80;99.90;;;;;;5010446;28;20121;-79
2022/07/26 04:55:06;;;;;;;3.83;0.68;;;16.80;99.90;;;;;;5011444;28;20132;-78
2022/07/26 04:57:32;;;;;;;3.65;0.90;;;16.80;99.90;;;;;;5010528;28;20037;-77
2022/07/26 04:59:58;;;;;;;5.30;1.00;;;16.80;99.90;;;;;;4994188;28;20046;-78
2022/07/26 05:02:24;;;;;;;2.70;0.70;;;16.90;99.90;;;;;;5011106;28;20072;-78
2022/07/26 05:04:50;;;;;;;5.38;1.23;;;16.80;99.90;;;;;;5010581;28;20466;-78
2022/07/26 05:07:15;;;;;;;2.72;0.70;;;16.80;99.90;;;;;;5011110;28;20359;-78
2022/07/26 05:09:41;;;;;;;11.75;1.05;;;16.80;99.90;;;;;;4994647;28;20084;-77
2022/07/26 05:12:07;;;;;;;7.28;1.20;;;16.90;99.90;;;;;;5011070;28;20096;-77
2022/07/26 05:14:33;;;;;;;;;;;16.80;99.90;;;;;;5011591;28;20104;-77
2022/07/26 05:16:59;;;;;;;2.10;0.50;;;16.90;99.90;;;;;;4994736;28;19922;-77
2022/07/26 05:19:25;;;;;;;2.47;0.63;;;16.90;99.90;;;;;;5010804;28;20042;-78
2022/07/26 05:21:50;;;;;;;6.68;0.70;;;16.90;99.90;;;;;;5010553;28;20057;-78
2022/07/26 05:24:16;;;;;;;3.55;0.82;;;16.90;99.90;;;;;;5010883;28;20045;-78
2022/07/26 05:26:42;;;;;;;4.43;0.70;;;16.90;99.90;;;;;;5010643;28;20045;-78
2022/07/26 05:29:07;;;;;;;5.07;0.70;;;16.80;99.90;;;;;;4994216;28;20049;-78
2022/07/26 05:31:33;;;;;;;5.28;0.93;;;16.70;99.90;;;;;;5009779;28;20505;-78
2022/07/26 05:33:59;;;;;;;3.33;0.55;;;16.50;99.90;;;;;;5010646;28;20056;-78
2022/07/26 05:36:25;;;;;;;3.25;0.70;;;16.40;99.90;;;;;;5010688;28;20053;-78
2022/07/26 05:38:50;;;;;;;2.75;0.40;;;16.40;99.90;;;;;;4994003;28;20544;-78
2022/07/26 05:41:16;;;;;;;2.85;0.40;;;16.30;99.90;;;;;;5010460;28;20042;-78
2022/07/26 05:43:42;;;;;;;6.30;0.77;;;16.30;99.90;;;;;;4994384;28;20044;-79
2022/07/26 05:46:09;;;;;;;3.88;0.70;;;16.40;99.90;;;;;;5009974;28;20041;-79
2022/07/26 05:48:35;;;;;;;3.15;0.43;;;16.50;99.90;;;;;;5010597;28;20061;-79
2022/07/26 05:51:00;;;;;;;2.42;0.85;;;16.50;99.90;;;;;;5010168;28;20042;-78
2022/07/26 05:53:26;;;;;;;2.83;0.40;;;16.50;99.90;;;;;;5010299;28;20449;-78
2022/07/26 05:55:52;;;;;;;4.70;0.70;;;16.60;99.90;;;;;;4993849;28;20047;-78
2022/07/26 05:58:17;;;;;;;5.65;0.80;;;16.60;99.90;;;;;;4993913;28;20077;-78
2022/07/26 06:00:43;;;;;;;4.18;0.73;;;16.70;99.90;;;;;;5010212;28;20077;-78
2022/07/26 06:03:21;;;;;;;3.08;0.60;;;16.80;99.90;;;;;;4993542;28;21525;-77
2022/07/26 06:05:51;;;;;;;5.05;0.57;;;16.80;99.90;;;;;;4979203;28;20045;-78
2022/07/26 06:08:17;;;;;;;5.20;1.10;;;16.90;99.90;;;;;;5010177;28;20121;-78
2022/07/26 06:10:44;;;;;;;2.15;0.60;;;17.00;99.90;;;;;;4994215;28;20222;-78
2022/07/26 06:13:09;;;;;;;;;;;17.00;99.90;;;;;;4994317;28;20550;-78
2022/07/26 06:15:36;;;;;;;5.28;0.70;;;17.10;99.90;;;;;;5010090;28;20004;-78
2022/07/26 06:18:05;;;;;;;3.00;0.63;;;17.20;99.90;;;;;;4993715;28;20053;-78
2022/07/26 06:20:31;;;;;;;3.40;0.60;;;17.30;99.90;;;;;;4978015;28;20077;-78
2022/07/26 06:22:58;;;;;;;4.75;0.68;;;17.40;99.90;;;;;;4993365;28;20041;-78
2022/07/26 06:25:24;;;;;;;;;;;17.30;99.90;;;;;;5010756;28;20502;-78
2022/07/26 06:27:49;;;;;;;5.30;0.70;;;17.30;99.90;;;;;;5009630;28;19956;-78
2022/07/26 06:30:15;;;;;;;8.35;0.95;;;17.30;99.90;;;;;;4996664;28;20520;-79
2022/07/26 06:32:44;;;;;;;4.13;0.57;;;17.30;99.90;;;;;;4993407;28;20042;-79
2022/07/26 06:35:11;;;;;;;6.88;0.85;;;17.20;99.90;;;;;;4993318;28;20045;-78
2022/07/26 06:37:37;;;;;;;4.97;0.80;;;17.00;99.90;;;;;;5009870;28;20073;-78
2022/07/26 06:40:05;;;;;;;4.60;0.88;;;16.90;99.90;;;;;;5009844;28;20074;-79
2022/07/26 06:42:31;;;;;;;7.45;1.77;;;16.80;99.90;;;;;;5012865;28;20494;-78
2022/07/26 06:44:58;;;;;;;6.97;0.80;;;16.70;99.90;;;;;;5013286;28;20046;-79
2022/07/26 06:47:24;;;;;;;3.13;0.68;;;16.70;99.90;;;;;;5013723;28;20465;-78
2022/07/26 06:49:50;;;;;;;4.43;0.75;;;16.80;99.90;;;;;;5013425;28;20048;-77
2022/07/26 06:52:15;;;;;;;5.35;0.75;;;16.80;99.90;;;;;;5013423;28;20117;-77
2022/07/26 06:54:41;;;;;;;6.88;0.77;;;16.90;99.90;;;;;;4981032;28;20042;-77
2022/07/26 06:57:07;;;;;;;3.20;0.60;;;17.10;99.90;;;;;;5013081;28;20080;-78
2022/07/26 06:59:32;;;;;;;4.75;1.00;;;17.40;99.90;;;;;;5013717;28;20077;-79
2022/07/26 07:01:58;;;;;;;4.55;0.65;;;17.60;99.90;;;;;;4980532;28;20049;-78
2022/07/26 07:04:24;;;;;;;4.55;0.93;;;17.70;99.90;;;;;;5013267;28;20062;-78
2022/07/26 07:06:49;;;;;;;3.50;0.68;;;17.70;99.90;;;;;;5010955;28;20046;-78
2022/07/26 07:09:15;;;;;;;2.97;0.55;;;17.70;99.90;;;;;;4997750;28;20068;-78
2022/07/26 07:11:43;;;;;;;6.28;0.82;;;17.80;99.90;;;;;;5019936;28;20045;-77
2022/07/26 07:14:08;;;;;;;5.18;0.70;;;17.70;99.90;;;;;;5019045;28;20041;-78
2022/07/26 07:16:34;;;;;;;5.50;0.82;;;17.60;99.90;;;;;;5019461;28;20046;-78
2022/07/26 07:19:00;;;;;;;4.32;0.55;;;17.60;99.90;;;;;;5002901;28;20076;-78
2022/07/26 07:21:26;;;;;;;3.05;0.40;;;17.50;99.90;;;;;;5002879;28;20073;-77
2022/07/26 07:23:51;;;;;;;;;;;17.50;99.90;;;;;;5018450;28;20521;-78
2022/07/26 07:26:18;;;;;;;3.30;0.63;;;17.70;99.90;;;;;;5017972;28;19917;-77
2022/07/26 07:28:44;;;;;;;5.60;0.85;;;17.90;99.90;;;;;;5019189;28;20116;-78
2022/07/26 07:31:10;;;;;;;3.40;0.60;;;18.10;99.90;;;;;;5002650;28;20119;-78
2022/07/26 07:33:36;;;;;;;6.03;1.00;;;18.30;99.90;;;;;;5019624;28;20049;-78
2022/07/26 07:36:01;;;;;;;6.93;0.80;;;18.30;99.90;;;;;;5003162;28;20064;-78
2022/07/26 07:38:30;;;;;;;4.80;1.00;;;18.30;99.90;;;;;;5020254;28;20474;-78
2022/07/26 07:40:56;;;;;;;2.80;0.45;;;18.30;99.90;;;;;;5020772;28;20038;-77
2022/07/26 07:43:21;;;;;;;4.07;0.73;;;18.50;99.90;;;;;;4986509;28;20038;-78
2022/07/26 07:45:47;;;;;;;5.97;0.93;;;18.60;99.90;;;;;;5000154;28;20076;-78
2022/07/26 07:48:13;;;;;;;3.15;0.70;;;18.90;99.90;;;;;;5003424;28;20053;-78
2022/07/26 07:50:39;;;;;;;4.88;0.95;;;18.90;99.90;;;;;;5019692;28;20097;-78
2022/07/26 07:53:05;;;;;;;5.68;1.00;;;18.80;99.90;;;;;;5018359;28;20048;-78
2022/07/26 07:55:31;;;;;;;4.80;0.80;;;18.60;99.90;;;;;;4988180;28;20073;-78
2022/07/26 07:57:56;;;;;;;7.43;1.30;;;18.50;99.90;;;;;;5006064;28;20046;-78
2022/07/26 08:00:22;;;;;;;4.68;1.02;;;18.30;99.90;;;;;;5020145;28;20045;-78
2022/07/26 08:02:48;;;;;;;9.70;1.10;;;18.20;99.90;;;;;;5005556;28;20113;-78
2022/07/26 08:05:14;;;;;;;4.78;0.80;;;18.10;99.90;;;;;;5020898;28;20050;-78
2022/07/26 08:07:39;;;;;;;4.80;0.82;;;18.10;99.90;;;;;;4989127;28;20065;-78
2022/07/26 08:10:06;;;;;;;3.90;0.73;;;18.20;99.90;;;;;;5022328;28;20041;-78
2022/07/26 08:12:31;;;;;;;;;;;18.20;99.90;;;;;;5020955;28;20125;-78
2022/07/26 08:14:57;;;;;;;6.30;1.10;;;18.40;99.90;;;;;;5019251;28;19956;-78
2022/07/26 08:17:23;;;;;;;5.70;0.85;;;18.50;99.90;;;;;;5018636;28;20046;-78
2022/07/26 08:19:48;;;;;;;6.30;0.88;;;18.60;99.90;;;;;;5018552;28;20129;-78
2022/07/26 08:22:14;;;;;;;2.80;0.70;;;18.60;99.90;;;;;;5018127;28;20434;-78
2022/07/26 08:24:40;;;;;;;4.97;1.00;;;18.60;99.90;;;;;;5017985;28;20502;-78
2022/07/26 08:27:06;;;;;;;3.45;0.57;;;18.80;99.90;;;;;;5002240;28;20041;-78
2022/07/26 08:29:31;;;;;;;3.42;0.82;;;18.90;99.90;;;;;;5020475;28;20034;-78
2022/07/26 08:31:57;;;;;;;3.13;0.73;;;19.00;99.90;;;;;;5005680;28;20045;-78
2022/07/26 08:34:23;;;;;;;3.25;0.68;;;19.20;99.90;;;;;;4985562;28;20041;-78
2022/07/26 08:36:49;;;;;;;5.20;0.85;;;19.30;99.90;;;;;;5018221;28;20532;-78
2022/07/26 08:39:15;;;;;;;4.82;1.05;;;19.30;99.90;;;;;;5019066;28;20127;-78
2022/07/26 08:41:41;;;;;;;8.25;1.10;;;19.40;99.90;;;;;;5004512;28;20120;-77
2022/07/26 08:44:09;;;;;;;5.53;1.08;;;19.40;99.90;;;;;;5018927;28;20038;-78
2022/07/26 08:46:41;;;;;;;3.97;1.00;;;19.40;99.90;;;;;;5018923;28;20042;-78
2022/07/26 08:49:09;;;;;;;5.68;1.00;;;19.20;99.90;;;;;;5019580;28;20061;-78
2022/07/26 08:51:42;;;;;;;5.03;1.08;;;18.90;99.90;;;;;;5004906;28;20046;-78
2022/07/26 08:54:09;;;;;;;8.52;1.20;;;18.90;99.90;;;;;;4997983;28;20042;-78
2022/07/26 08:56:40;;;;;;;7.50;1.02;;;19.10;99.90;;;;;;5016643;28;20081;-78
2022/07/26 08:59:13;;;;;;;4.60;1.10;;;19.30;99.90;;;;;;4998796;28;20124;-77
2022/07/26 09:01:52;;;;;;;8.98;1.73;;;19.60;99.90;;;;;;5016126;28;20052;-77
2022/07/26 09:04:24;;;;;;;6.22;1.38;;;19.90;99.90;;;;;;5016361;28;20064;-77
2022/07/26 09:07:08;;;;;;;10.23;2.13;;;19.80;99.90;;;;;;5016047;28;20157;-78
2022/07/26 09:09:54;;;;;;;8.77;1.92;;;19.40;99.90;;;;;;5008009;28;20041;-78
2022/07/26 09:12:21;;;;;;;8.88;1.23;;;19.30;99.90;;;;;;5013437;28;20045;-78
2022/07/26 09:14:48;;;;;;;5.25;1.30;;;19.00;99.90;;;;;;5014465;28;20073;-77
2022/07/26 09:17:16;;;;;;;5.18;1.13;;;18.90;99.90;;;;;;5014071;28;20068;-77
2022/07/26 09:19:42;;;;;;;8.88;1.80;;;18.80;99.90;;;;;;5013950;28;20037;-78
2022/07/26 09:22:13;;;;;;;6.18;1.38;;;18.90;99.90;;;;;;5013488;28;20121;-77
2022/07/26 09:24:49;;;;;;;8.40;1.52;;;18.90;99.90;;;;;;5013845;28;20030;-78
2022/07/26 09:27:16;;;;;;;5.95;1.20;;;18.90;99.90;;;;;;5014151;28;20038;-77
2022/07/26 09:29:43;;;;;;;7.95;1.55;;;19.00;99.90;;;;;;5017361;28;20093;-78
2022/07/26 09:32:22;;;;;;;9.23;1.70;;;19.00;99.90;;;;;;5017112;28;20038;-78
2022/07/26 09:35:20;;;;;;;9.18;1.83;;;18.90;99.90;;;;;;5014830;28;20042;-77
2022/07/26 09:37:47;;;;;;;;;;;18.90;99.90;;;;;;5010790;28;20513;-77
2022/07/26 09:40:15;;;;;;;14.02;2.05;;;18.90;99.90;;;;;;5012893;28;20333;-78
2022/07/26 09:42:58;;;;;;;9.50;1.90;;;19.10;99.90;;;;;;4998870;28;20041;-78
2022/07/26 09:45:25;;;;;;;6.80;1.60;;;19.40;99.90;;;;;;5013624;28;20044;-78
2022/07/26 09:47:51;;;;;;;9.65;1.60;;;19.50;99.90;;;;;;4998292;28;20038;-78
2022/07/26 09:50:20;;;;;;;10.48;2.28;;;19.70;99.90;;;;;;5013856;28;20046;-78
2022/07/26 09:53:07;;;;;;;10.27;1.80;;;19.70;99.90;;;;;;5014606;28;20041;-78
2022/07/26 09:55:35;;;;;;;10.82;1.88;;;19.50;99.90;;;;;;5011118;28;20046;-78
2022/07/26 09:58:03;;;;;;;9.10;1.67;;;19.40;99.90;;;;;;5012135;28;20089;-77
2022/07/26 10:00:33;;;;;;;9.90;1.88;;;19.20;99.90;;;;;;5004974;28;20048;-77
2022/07/26 10:02:59;;;;;;;10.30;1.60;;;19.30;99.90;;;;;;5012571;28;20033;-78
2022/07/26 10:05:24;;;;;;;;;;;19.40;99.90;;;;;;5013258;28;20603;-78
2022/07/26 10:07:51;;;;;;;9.10;1.23;;;19.50;99.90;;;;;;5013490;28;19917;-78
2022/07/26 10:10:22;;;;;;;;;;;19.90;99.90;;;;;;5012924;28;20042;-78
2022/07/26 10:12:51;;;;;;;7.30;1.42;;;20.20;99.90;;;;;;5007996;28;19997;-78
2022/07/26 10:15:49;;;;;;;10.65;1.33;;;20.50;99.90;;;;;;5011230;28;20053;-78
2022/07/26 10:18:37;;;;;;;7.18;1.55;;;20.80;99.90;;;;;;4975818;28;20049;-78
2022/07/26 10:21:42;;;;;;;6.90;1.40;;;20.70;99.90;;;;;;5016974;28;20609;-78
2022/07/26 10:24:24;;;;;;;6.70;1.38;;;20.40;99.90;;;;;;5011608;28;20049;-78
2022/07/26 10:26:50;;;;;;;19.98;1.73;;;20.70;99.90;;;;;;5032737;28;20030;-78
2022/07/26 10:29:18;;;;;;;8.60;1.27;;;20.70;99.90;;;;;;5018879;28;20088;-78
2022/07/26 10:31:46;;;;;;;5.38;1.50;;;20.80;99.90;;;;;;5019164;28;20072;-78
2022/07/26 10:34:28;;;;;;;10.10;1.40;;;20.70;99.90;;;;;;5018953;28;20496;-78
2022/07/26 10:37:00;;;;;;;7.18;1.10;;;20.80;99.90;;;;;;5018316;28;20045;-78
2022/07/26 10:39:26;;;;;;;5.72;0.95;;;21.10;99.90;;;;;;5018744;28;20383;-78
2022/07/26 10:42:00;;;;;;;6.35;1.10;;;21.30;99.90;;;;;;4985581;28;20101;-77
2022/07/26 10:44:30;;;;;;;7.78;1.00;;;21.60;99.90;;;;;;5018167;28;20045;-78
2022/07/26 10:47:08;;;;;;;5.45;1.10;;;22.00;99.90;;;;;;5016535;28;20109;-78
2022/07/26 10:49:41;;;;;;;8.10;1.00;;;21.70;99.50;;;;;;5018397;28;20406;-78
2022/07/26 10:52:10;;;;;;;7.30;1.63;;;21.50;99.60;;;;;;5018652;28;20124;-78
2022/07/26 10:54:55;;;;;;;11.90;1.55;;;21.50;99.40;;;;;;5018288;28;20046;-78
2022/07/26 10:57:24;;;;;;;5.03;0.82;;;21.80;98.90;;;;;;5012855;28;20049;-78
2022/07/26 10:59:50;;;;;;;8.60;1.20;;;22.00;99.10;;;;;;5018185;28;20041;-78
2022/07/26 11:02:31;;;;;;;6.65;0.90;;;22.10;98.40;;;;;;5018494;28;20034;-78
2022/07/26 11:05:03;;;;;;;6.95;0.77;;;22.30;98.10;;;;;;5010162;28;20046;-78
2022/07/26 11:07:29;;;;;;;3.85;0.80;;;22.80;98.00;;;;;;5017425;28;20112;-78
2022/07/26 11:09:56;;;;;;;4.82;0.63;;;23.30;97.10;;;;;;5018039;28;20147;-79
2022/07/26 11:12:22;;;;;;;5.25;0.82;;;23.20;96.90;;;;;;5017707;28;20040;-78
2022/07/26 11:14:48;;;;;;;6.45;0.77;;;23.40;96.50;;;;;;5001526;28;20502;-78
2022/07/26 11:17:24;;;;;;;;;;;23.30;96.20;;;;;;5018023;28;20100;-79
2022/07/26 11:19:50;;;;;;;5.35;1.00;;;23.20;96.40;;;;;;5017784;28;20320;-79
2022/07/26 11:22:16;;;;;;;2.72;0.40;;;23.40;96.20;;;;;;5017913;28;20073;-78
2022/07/26 11:24:41;;;;;;;;;;;23.70;95.10;;;;;;5018265;28;20127;-79
2022/07/26 11:27:07;;;;;;;3.60;0.60;;;23.50;95.00;;;;;;5017094;28;20018;-79
2022/07/26 11:29:33;;;;;;;;;;;23.80;94.80;;;;;;4997904;28;20038;-78
2022/07/26 11:32:00;;;;;;;5.68;1.00;;;23.60;95.20;;;;;;5005265;28;19923;-78
2022/07/26 11:34:28;;;;;;;4.63;0.50;;;23.30;95.00;;;;;;5014073;28;20067;-78
2022/07/26 11:36:56;;;;;;;2.30;0.52;;;23.10;95.00;;;;;;5013817;28;20053;-78
2022/07/26 11:39:30;;;;;;;5.32;0.50;;;23.10;95.80;;;;;;5014054;28;20053;-78
2022/07/26 11:42:05;;;;;;;2.95;0.50;;;22.80;96.10;;;;;;5013559;28;20089;-78
2022/07/26 11:44:32;;;;;;;3.45;0.50;;;22.80;96.30;;;;;;4997735;28;20541;-78
2022/07/26 11:46:58;;;;;;;3.17;0.52;;;22.60;96.60;;;;;;4997276;28;20445;-78
2022/07/26 11:49:29;;;;;;;8.38;0.77;;;22.40;96.40;;;;;;5013828;28;20046;-79
2022/07/26 11:52:00;;;;;;;3.08;0.60;;;22.50;96.30;;;;;;5013438;28;20048;-78
2022/07/26 11:54:28;;;;;;;3.88;0.60;;;22.40;96.40;;;;;;4992548;28;20363;-77
2022/07/26 11:56:54;;;;;;;3.35;0.40;;;22.50;96.30;;;;;;5013618;28;20048;-78
2022/07/26 11:59:22;;;;;;;2.83;0.70;;;22.40;95.80;;;;;;5013232;28;20108;-79
2022/07/26 12:01:49;;;;;;;2.63;0.50;;;22.50;96.40;;;;;;5013684;28;20042;-78
2022/07/26 12:04:18;;;;;;;;;;;22.60;95.20;;;;;;4997480;28;20418;-78
2022/07/26 12:06:44;;;;;;;3.00;0.45;;;22.70;96.00;;;;;;4991634;28;20380;-78
2022/07/26 12:09:10;;;;;;;;;;;22.60;95.70;;;;;;4997774;28;20042;-79
2022/07/26 12:11:39;;;;;;;4.32;0.50;;;22.40;95.50;;;;;;5012733;28;20389;-79
2022/07/26 12:14:04;;;;;;;4.43;0.88;;;22.30;95.30;;;;;;5027445;28;20044;-79
2022/07/26 12:16:34;;;;;;;;;;;22.40;96.00;;;;;;5013393;28;20398;-79
2022/07/26 12:19:01;;;;;;;5.68;0.68;;;22.60;96.30;;;;;;5011180;28;19921;-79
2022/07/26 12:21:53;;;;;;;4.50;0.75;;;22.80;95.90;;;;;;5012553;28;20038;-79
2022/07/26 12:24:40;;;;;;;3.40;0.73;;;22.80;95.40;;;;;;5009479;28;20466;-79
2022/07/26 12:27:21;;;;;;;3.40;0.60;;;22.80;95.20;;;;;;5012668;28;20034;-78
2022/07/26 12:29:55;;;;;;;4.78;0.80;;;22.70;95.40;;;;;;5010988;28;20030;-79
2022/07/26 12:32:42;;;;;;;3.17;0.73;;;22.60;96.00;;;;;;5016842;28;20046;-78
2022/07/26 12:35:13;;;;;;;4.90;0.80;;;22.50;96.50;;;;;;5012979;28;20026;-78
2022/07/26 12:37:45;;;;;;;6.95;0.93;;;22.50;96.20;;;;;;5012838;28;20531;-78
2022/07/26 12:40:17;;;;;;;3.20;0.63;;;22.30;96.60;;;;;;5012036;28;20125;-79
2022/07/26 12:42:53;;;;;;;2.85;0.60;;;22.30;96.70;;;;;;5022672;28;20538;-79
2022/07/26 12:45:21;;;;;;;5.32;0.82;;;22.20;96.50;;;;;;5010195;28;20118;-78
2022/07/26 12:47:49;;;;;;;4.47;0.80;;;22.20;96.90;;;;;;4996148;28;20041;-78
2022/07/26 12:50:18;;;;;;;4.57;0.55;;;22.30;96.40;;;;;;5012312;28;20121;-78
2022/07/26 12:52:43;;;;;;;5.85;0.70;;;22.30;96.00;;;;;;5012215;28;20050;-78
2022/07/26 12:55:12;;;;;;;;;;;22.50;96.00;;;;;;4996564;28;20473;-79
2022/07/26 12:57:38;;;;;;;5.78;0.82;;;22.50;95.90;;;;;;4995682;28;19940;-78